sensor_id;sensor_type;location;lat;lon;timestamp;temperature;humidity
16392;DHT22;8305;-33.882;151.134;2023-03-01T00:02:10;27.10;99.90
16392;DHT22;8305;-33.882;151.134;2023-03-01T00:04:41;27.20;99.90
16392;DHT22;8305;-33.882;151.134;2023-03-01T00:07:15;27.30;99.90
16392;DHT22;8305;-33.882;151.134;2023-03-01T00:09:46;27.40;99.90
16392;DHT22;8305;-33.882;151.134;2023-03-01T00:12:17;27.40;99.90
16392;DHT22;8305;-33.882;151.134;2023-03-01T00:14:48;27.50;99.90
16392;DHT22;8305;-33.882;151.134;2023-03-01T00:17:19;27.50;99.90
16392;DHT22;8305;-33.882;151.134;2023-03-01T00:19:50;27.60;99.90
16392;DHT22;8305;-33.882;151.134;2023-03-01T00:22:23;27.70;99.90
16392;DHT22;8305;-33.882;151.134;2023-03-01T00:24:54;27.50;99.90
16392;DHT22;8305;-33.882;151.134;2023-03-01T00:27:25;27.50;99.90
16392;DHT22;8305;-33.882;151.134;2023-03-01T00:29:56;27.60;99.90
16392;DHT22;8305;-33.882;151.134;2023-03-01T00:32:27;27.60;99.90
16392;DHT22;8305;-33.882;151.134;2023-03-01T00:34:58;27.70;99.90
16392;DHT22;8305;-33.882;151.134;2023-03-01T00:37:31;27.80;99.90
16392;DHT22;8305;-33.882;151.134;2023-03-01T00:40:02;28.00;99.90
16392;DHT22;8305;-33.882;151.134;2023-03-01T00:42:34;28.10;99.90
16392;DHT22;8305;-33.882;151.134;2023-03-01T00:45:06;28.10;99.90
16392;DHT22;8305;-33.882;151.134;2023-03-01T00:47:38;28.20;99.90
16392;DHT22;8305;-33.882;151.134;2023-03-01T00:50:09;28.20;99.90
16392;DHT22;8305;-33.882;151.134;2023-03-01T00:52:43;28.20;99.90
16392;DHT22;8305;-33.882;151.134;2023-03-01T00:55:14;28.00;99.90
16392;DHT22;8305;-33.882;151.134;2023-03-01T00:57:45;28.10;99.90
16392;DHT22;8305;-33.882;151.134;2023-03-01T01:00:16;28.10;99.90
16392;DHT22;8305;-33.882;151.134;2023-03-01T01:02:48;28.20;99.90
16392;DHT22;8305;-33.882;151.134;2023-03-01T01:05:19;28.30;99.90
16392;DHT22;8305;-33.882;151.134;2023-03-01T01:07:52;28.30;99.90
16392;DHT22;8305;-33.882;151.134;2023-03-01T01:10:26;28.20;99.90
16392;DHT22;8305;-33.882;151.134;2023-03-01T01:12:57;28.20;99.90
16392;DHT22;8305;-33.882;151.134;2023-03-01T01:15:28;28.10;99.90
16392;DHT22;8305;-33.882;151.134;2023-03-01T01:17:59;28.10;99.90
16392;DHT22;8305;-33.882;151.134;2023-03-01T01:20:30;28.10;99.90
16392;DHT22;8305;-33.882;151.134;2023-03-01T01:23:06;28.10;99.90
16392;DHT22;8305;-33.882;151.134;2023-03-01T01:25:37;28.00;99.90
16392;DHT22;8305;-33.882;151.134;2023-03-01T01:28:08;27.90;99.90
16392;DHT22;8305;-33.882;151.134;2023-03-01T01:30:39;28.00;99.90
16392;DHT22;8305;-33.882;151.134;2023-03-01T01:33:10;27.90;99.90
16392;DHT22;8305;-33.882;151.134;2023-03-01T01:35:44;27.70;99.90
16392;DHT22;8305;-33.882;151.134;2023-03-01T01:38:17;27.50;99.90
16392;DHT22;8305;-33.882;151.134;2023-03-01T01:40:50;27.20;99.90
16392;DHT22;8305;-33.882;151.134;2023-03-01T01:43:24;27.10;99.90
16392;DHT22;8305;-33.882;151.134;2023-03-01T01:45:56;27.10;99.90
16392;DHT22;8305;-33.882;151.134;2023-03-01T01:48:32;27.10;99.90
16392;DHT22;8305;-33.882;151.134;2023-03-01T01:51:11;27.30;99.90
16392;DHT22;8305;-33.882;151.134;2023-03-01T01:53:48;27.60;99.90
16392;DHT22;8305;-33.882;151.134;2023-03-01T01:56:21;27.80;99.90
16392;DHT22;8305;-33.882;151.134;2023-03-01T01:58:55;28.00;99.90
16392;DHT22;8305;-33.882;151.134;2023-03-01T02:01:26;28.10;99.90
16392;DHT22;8305;-33.882;151.134;2023-03-01T02:03:59;28.20;99.90
16392;DHT22;8305;-33.882;151.134;2023-03-01T02:06:36;28.30;99.90
16392;DHT22;8305;-33.882;151.134;2023-03-01T02:09:13;28.40;99.90
16392;DHT22;8305;-33.882;151.134;2023-03-01T02:11:44;28.40;99.90
16392;DHT22;8305;-33.882;151.134;2023-03-01T02:14:16;28.30;99.90
16392;DHT22;8305;-33.882;151.134;2023-03-01T02:16:47;28.30;99.90
16392;DHT22;8305;-33.882;151.134;2023-03-01T02:19:26;28.30;99.90
16392;DHT22;8305;-33.882;151.134;2023-03-01T02:22:06;28.30;99.90
16392;DHT22;8305;-33.882;151.134;2023-03-01T02:24:51;28.40;99.90
16392;DHT22;8305;-33.882;151.134;2023-03-01T02:27:31;28.20;99.90
16392;DHT22;8305;-33.882;151.134;2023-03-01T02:30:07;28.20;99.90
16392;DHT22;8305;-33.882;151.134;2023-03-01T02:32:40;28.10;99.90
16392;DHT22;8305;-33.882;151.134;2023-03-01T02:35:12;28.10;99.90
16392;DHT22;8305;-33.882;151.134;2023-03-01T02:37:44;28.20;99.90
16392;DHT22;8305;-33.882;151.134;2023-03-01T02:40:19;28.10;99.90
16392;DHT22;8305;-33.882;151.134;2023-03-01T02:42:53;27.90;99.90
16392;DHT22;8305;-33.882;151.134;2023-03-01T02:45:28;27.90;99.90
16392;DHT22;8305;-33.882;151.134;2023-03-01T02:48:00;27.90;99.90
16392;DHT22;8305;-33.882;151.134;2023-03-01T02:50:52;27.80;99.90
16392;DHT22;8305;-33.882;151.134;2023-03-01T02:53:32;27.90;99.90
16392;DHT22;8305;-33.882;151.134;2023-03-01T02:56:07;28.10;99.90
16392;DHT22;8305;-33.882;151.134;2023-03-01T02:58:41;28.30;99.90
16392;DHT22;8305;-33.882;151.134;2023-03-01T03:01:23;28.50;99.90
16392;DHT22;8305;-33.882;151.134;2023-03-01T03:04:06;28.70;99.90
16392;DHT22;8305;-33.882;151.134;2023-03-01T03:06:37;28.80;99.90
16392;DHT22;8305;-33.882;151.134;2023-03-01T03:09:09;28.80;99.90
16392;DHT22;8305;-33.882;151.134;2023-03-01T03:11:40;28.60;99.90
16392;DHT22;8305;-33.882;151.134;2023-03-01T03:14:13;28.60;99.90
16392;DHT22;8305;-33.882;151.134;2023-03-01T03:16:48;28.70;99.90
16392;DHT22;8305;-33.882;151.134;2023-03-01T03:19:20;28.70;99.90
16392;DHT22;8305;-33.882;151.134;2023-03-01T03:21:51;28.60;99.90
16392;DHT22;8305;-33.882;151.134;2023-03-01T03:24:22;28.20;99.90
16392;DHT22;8305;-33.882;151.134;2023-03-01T03:26:53;28.00;99.90
16392;DHT22;8305;-33.882;151.134;2023-03-01T03:29:24;27.90;99.90
16392;DHT22;8305;-33.882;151.134;2023-03-01T03:31:57;27.90;99.90
16392;DHT22;8305;-33.882;151.134;2023-03-01T03:34:28;27.90;99.90
16392;DHT22;8305;-33.882;151.134;2023-03-01T03:36:59;27.90;99.90
16392;DHT22;8305;-33.882;151.134;2023-03-01T03:39:30;27.80;99.90
16392;DHT22;8305;-33.882;151.134;2023-03-01T03:42:03;27.50;99.90
16392;DHT22;8305;-33.882;151.134;2023-03-01T03:44:34;27.40;99.90
16392;DHT22;8305;-33.882;151.134;2023-03-01T03:47:07;27.40;99.90
16392;DHT22;8305;-33.882;151.134;2023-03-01T03:49:38;27.20;99.90
16392;DHT22;8305;-33.882;151.134;2023-03-01T03:52:10;27.10;99.90
16392;DHT22;8305;-33.882;151.134;2023-03-01T03:54:42;27.00;99.90
16392;DHT22;8305;-33.882;151.134;2023-03-01T03:57:14;26.90;99.90
16392;DHT22;8305;-33.882;151.134;2023-03-01T03:59:45;26.80;99.90
16392;DHT22;8305;-33.882;151.134;2023-03-01T04:02:18;26.90;99.90
16392;DHT22;8305;-33.882;151.134;2023-03-01T04:04:50;26.70;99.90
16392;DHT22;8305;-33.882;151.134;2023-03-01T04:07:21;26.60;99.90
16392;DHT22;8305;-33.882;151.134;2023-03-01T04:09:52;26.60;99.90
16392;DHT22;8305;-33.882;151.134;2023-03-01T04:12:23;26.70;99.90
16392;DHT22;8305;-33.882;151.134;2023-03-01T04:14:56;26.70;99.90
16392;DHT22;8305;-33.882;151.134;2023-03-01T04:17:32;26.80;99.90
16392;DHT22;8305;-33.882;151.134;2023-03-01T04:20:03;26.80;99.90
16392;DHT22;8305;-33.882;151.134;2023-03-01T04:22:35;26.70;99.90
16392;DHT22;8305;-33.882;151.134;2023-03-01T04:25:06;26.70;99.90
16392;DHT22;8305;-33.882;151.134;2023-03-01T04:27:42;26.80;99.90
16392;DHT22;8305;-33.882;151.134;2023-03-01T04:30:13;26.80;99.90
16392;DHT22;8305;-33.882;151.134;2023-03-01T04:32:46;26.80;99.90
16392;DHT22;8305;-33.882;151.134;2023-03-01T04:35:18;26.70;99.90
16392;DHT22;8305;-33.882;151.134;2023-03-01T04:37:49;26.70;99.90
16392;DHT22;8305;-33.882;151.134;2023-03-01T04:40:20;26.70;99.90
16392;DHT22;8305;-33.882;151.134;2023-03-01T04:42:51;26.60;99.90
16392;DHT22;8305;-33.882;151.134;2023-03-01T04:45:22;26.50;99.90
16392;DHT22;8305;-33.882;151.134;2023-03-01T04:47:56;26.50;99.90
16392;DHT22;8305;-33.882;151.134;2023-03-01T04:50:29;26.50;99.90
16392;DHT22;8305;-33.882;151.134;2023-03-01T04:53:00;26.40;99.90
16392;DHT22;8305;-33.882;151.134;2023-03-01T04:55:31;26.30;99.90
16392;DHT22;8305;-33.882;151.134;2023-03-01T04:58:02;26.20;99.90
16392;DHT22;8305;-33.882;151.134;2023-03-01T05:00:33;26.30;99.90
16392;DHT22;8305;-33.882;151.134;2023-03-01T05:03:07;26.40;99.90
16392;DHT22;8305;-33.882;151.134;2023-03-01T05:05:39;26.50;99.90
16392;DHT22;8305;-33.882;151.134;2023-03-01T05:08:12;26.30;99.90
16392;DHT22;8305;-33.882;151.134;2023-03-01T05:10:48;26.20;99.90
16392;DHT22;8305;-33.882;151.134;2023-03-01T05:13:20;26.00;99.90
16392;DHT22;8305;-33.882;151.134;2023-03-01T05:15:56;25.90;99.90
16392;DHT22;8305;-33.882;151.134;2023-03-01T05:18:31;26.00;99.90
16392;DHT22;8305;-33.882;151.134;2023-03-01T05:21:05;25.90;99.90
16392;DHT22;8305;-33.882;151.134;2023-03-01T05:23:36;25.80;99.90
16392;DHT22;8305;-33.882;151.134;2023-03-01T05:26:07;25.90;99.90
16392;DHT22;8305;-33.882;151.134;2023-03-01T05:28:40;26.00;99.90
16392;DHT22;8305;-33.882;151.134;2023-03-01T05:31:11;26.00;99.90
16392;DHT22;8305;-33.882;151.134;2023-03-01T05:33:44;25.90;99.90
16392;DHT22;8305;-33.882;151.134;2023-03-01T05:36:17;25.90;99.90
16392;DHT22;8305;-33.882;151.134;2023-03-01T05:38:48;25.80;99.90
16392;DHT22;8305;-33.882;151.134;2023-03-01T05:41:20;25.60;99.90
16392;DHT22;8305;-33.882;151.134;2023-03-01T05:43:52;25.50;99.90
16392;DHT22;8305;-33.882;151.134;2023-03-01T05:46:24;25.30;99.90
16392;DHT22;8305;-33.882;151.134;2023-03-01T05:48:57;25.20;99.90
16392;DHT22;8305;-33.882;151.134;2023-03-01T05:51:28;25.30;99.90
16392;DHT22;8305;-33.882;151.134;2023-03-01T05:54:02;25.40;99.90
16392;DHT22;8305;-33.882;151.134;2023-03-01T05:56:35;25.40;99.90
16392;DHT22;8305;-33.882;151.134;2023-03-01T05:59:06;25.40;99.90
16392;DHT22;8305;-33.882;151.134;2023-03-01T06:01:39;25.30;99.90
16392;DHT22;8305;-33.882;151.134;2023-03-01T06:04:13;25.20;99.90
16392;DHT22;8305;-33.882;151.134;2023-03-01T06:06:46;25.20;99.90
16392;DHT22;8305;-33.882;151.134;2023-03-01T06:09:18;25.20;99.90
16392;DHT22;8305;-33.882;151.134;2023-03-01T06:11:50;25.10;99.90
16392;DHT22;8305;-33.882;151.134;2023-03-01T06:14:21;25.00;99.90
16392;DHT22;8305;-33.882;151.134;2023-03-01T06:16:52;24.90;99.90
16392;DHT22;8305;-33.882;151.134;2023-03-01T06:19:25;24.80;99.90
16392;DHT22;8305;-33.882;151.134;2023-03-01T06:21:56;24.80;99.90
16392;DHT22;8305;-33.882;151.134;2023-03-01T06:24:27;24.80;99.90
16392;DHT22;8305;-33.882;151.134;2023-03-01T06:26:59;24.70;99.90
16392;DHT22;8305;-33.882;151.134;2023-03-01T06:29:30;24.70;99.90
16392;DHT22;8305;-33.882;151.134;2023-03-01T06:32:01;24.60;99.90
16392;DHT22;8305;-33.882;151.134;2023-03-01T06:34:34;24.70;99.90
16392;DHT22;8305;-33.882;151.134;2023-03-01T06:37:06;24.80;99.90
16392;DHT22;8305;-33.882;151.134;2023-03-01T06:39:37;24.80;99.90
16392;DHT22;8305;-33.882;151.134;2023-03-01T06:42:09;24.70;99.90
16392;DHT22;8305;-33.882;151.134;2023-03-01T06:44:41;24.60;99.90
16392;DHT22;8305;-33.882;151.134;2023-03-01T06:47:14;24.50;99.90
16392;DHT22;8305;-33.882;151.134;2023-03-01T06:49:47;24.50;99.90
16392;DHT22;8305;-33.882;151.134;2023-03-01T06:52:18;24.40;99.90
16392;DHT22;8305;-33.882;151.134;2023-03-01T06:54:49;24.30;99.90
16392;DHT22;8305;-33.882;151.134;2023-03-01T06:57:20;24.30;99.90
16392;DHT22;8305;-33.882;151.134;2023-03-01T06:59:51;24.20;99.90
16392;DHT22;8305;-33.882;151.134;2023-03-01T07:02:24;24.10;99.90
16392;DHT22;8305;-33.882;151.134;2023-03-01T07:04:57;24.10;99.90
16392;DHT22;8305;-33.882;151.134;2023-03-01T07:07:28;24.10;99.90
16392;DHT22;8305;-33.882;151.134;2023-03-01T07:09:59;24.10;99.90
16392;DHT22;8305;-33.882;151.134;2023-03-01T07:12:30;24.10;99.90
16392;DHT22;8305;-33.882;151.134;2023-03-01T07:15:01;24.10;99.90
16392;DHT22;8305;-33.882;151.134;2023-03-01T07:17:32;24.10;99.90
16392;DHT22;8305;-33.882;151.134;2023-03-01T07:20:05;24.10;99.90
16392;DHT22;8305;-33.882;151.134;2023-03-01T07:22:37;24.00;99.90
16392;DHT22;8305;-33.882;151.134;2023-03-01T07:25:10;24.00;99.90
16392;DHT22;8305;-33.882;151.134;2023-03-01T07:27:42;24.00;99.90
16392;DHT22;8305;-33.882;151.134;2023-03-01T07:30:14;24.00;99.90
16392;DHT22;8305;-33.882;151.134;2023-03-01T07:32:45;23.90;99.90
16392;DHT22;8305;-33.882;151.134;2023-03-01T07:35:18;23.90;99.90
16392;DHT22;8305;-33.882;151.134;2023-03-01T07:37:49;23.80;99.90
16392;DHT22;8305;-33.882;151.134;2023-03-01T07:40:21;23.80;99.90
16392;DHT22;8305;-33.882;151.134;2023-03-01T07:42:56;23.80;99.90
16392;DHT22;8305;-33.882;151.134;2023-03-01T07:45:28;23.80;99.90
16392;DHT22;8305;-33.882;151.134;2023-03-01T07:47:59;23.80;99.90
16392;DHT22;8305;-33.882;151.134;2023-03-01T07:50:32;23.80;99.90
16392;DHT22;8305;-33.882;151.134;2023-03-01T07:53:03;23.70;99.90
16392;DHT22;8305;-33.882;151.134;2023-03-01T07:55:34;23.70;99.90
16392;DHT22;8305;-33.882;151.134;2023-03-01T07:58:05;23.60;99.90
16392;DHT22;8305;-33.882;151.134;2023-03-01T08:00:36;23.60;99.90
16392;DHT22;8305;-33.882;151.134;2023-03-01T08:03:07;23.60;99.90
16392;DHT22;8305;-33.882;151.134;2023-03-01T08:05:40;23.60;99.90
16392;DHT22;8305;-33.882;151.134;2023-03-01T08:08:11;23.50;99.90
16392;DHT22;8305;-33.882;151.134;2023-03-01T08:10:42;23.40;99.90
16392;DHT22;8305;-33.882;151.134;2023-03-01T08:13:13;23.50;99.90
16392;DHT22;8305;-33.882;151.134;2023-03-01T08:15:50;23.50;99.90
16392;DHT22;8305;-33.882;151.134;2023-03-01T08:18:22;23.40;99.90
16392;DHT22;8305;-33.882;151.134;2023-03-01T08:20:55;23.40;99.90
16392;DHT22;8305;-33.882;151.134;2023-03-01T08:23:26;23.40;99.90
16392;DHT22;8305;-33.882;151.134;2023-03-01T08:26:05;23.30;99.90
16392;DHT22;8305;-33.882;151.134;2023-03-01T08:28:37;23.30;99.90
16392;DHT22;8305;-33.882;151.134;2023-03-01T08:31:15;23.30;99.90
16392;DHT22;8305;-33.882;151.134;2023-03-01T08:33:47;23.30;99.90
16392;DHT22;8305;-33.882;151.134;2023-03-01T08:36:25;23.30;99.90
16392;DHT22;8305;-33.882;151.134;2023-03-01T08:38:57;23.30;99.90
16392;DHT22;8305;-33.882;151.134;2023-03-01T08:41:28;23.30;99.90
16392;DHT22;8305;-33.882;151.134;2023-03-01T08:43:59;23.30;99.90
16392;DHT22;8305;-33.882;151.134;2023-03-01T08:46:33;23.30;99.90
16392;DHT22;8305;-33.882;151.134;2023-03-01T08:49:05;23.30;99.90
16392;DHT22;8305;-33.882;151.134;2023-03-01T08:51:38;23.30;99.90
16392;DHT22;8305;-33.882;151.134;2023-03-01T08:54:12;23.30;99.90
16392;DHT22;8305;-33.882;151.134;2023-03-01T08:56:44;23.30;99.90
16392;DHT22;8305;-33.882;151.134;2023-03-01T08:59:15;23.30;99.90
16392;DHT22;8305;-33.882;151.134;2023-03-01T09:01:47;23.30;99.90
16392;DHT22;8305;-33.882;151.134;2023-03-01T09:04:18;23.20;99.90
16392;DHT22;8305;-33.882;151.134;2023-03-01T09:06:51;23.20;99.90
16392;DHT22;8305;-33.882;151.134;2023-03-01T09:09:22;23.30;99.90
16392;DHT22;8305;-33.882;151.134;2023-03-01T09:11:53;23.20;99.90
16392;DHT22;8305;-33.882;151.134;2023-03-01T09:14:25;23.30;99.90
16392;DHT22;8305;-33.882;151.134;2023-03-01T09:16:56;23.20;99.90
16392;DHT22;8305;-33.882;151.134;2023-03-01T09:19:30;23.20;99.90
16392;DHT22;8305;-33.882;151.134;2023-03-01T09:22:04;23.30;99.90
16392;DHT22;8305;-33.882;151.134;2023-03-01T09:24:38;23.20;99.90
16392;DHT22;8305;-33.882;151.134;2023-03-01T09:27:09;23.20;99.90
16392;DHT22;8305;-33.882;151.134;2023-03-01T09:29:40;23.20;99.90
16392;DHT22;8305;-33.882;151.134;2023-03-01T09:32:11;23.30;99.90
16392;DHT22;8305;-33.882;151.134;2023-03-01T09:34:45;23.30;99.90
16392;DHT22;8305;-33.882;151.134;2023-03-01T09:37:35;23.30;99.90
16392;DHT22;8305;-33.882;151.134;2023-03-01T09:40:09;23.30;99.90
16392;DHT22;8305;-33.882;151.134;2023-03-01T09:42:52;23.20;99.90
16392;DHT22;8305;-33.882;151.134;2023-03-01T09:45:29;23.30;99.90
16392;DHT22;8305;-33.882;151.134;2023-03-01T09:48:05;23.20;99.90
16392;DHT22;8305;-33.882;151.134;2023-03-01T09:50:42;23.30;99.90
16392;DHT22;8305;-33.882;151.134;2023-03-01T09:53:18;23.30;99.90
16392;DHT22;8305;-33.882;151.134;2023-03-01T09:55:53;23.20;99.90
16392;DHT22;8305;-33.882;151.134;2023-03-01T09:58:37;23.30;99.90
16392;DHT22;8305;-33.882;151.134;2023-03-01T10:01:28;23.20;99.90
16392;DHT22;8305;-33.882;151.134;2023-03-01T10:04:27;23.20;99.90
16392;DHT22;8305;-33.882;151.134;2023-03-01T10:07:14;23.30;99.90
16392;DHT22;8305;-33.882;151.134;2023-03-01T10:09:49;23.20;99.90
16392;DHT22;8305;-33.882;151.134;2023-03-01T10:12:22;23.20;99.90
16392;DHT22;8305;-33.882;151.134;2023-03-01T10:15:00;23.20;99.90
16392;DHT22;8305;-33.882;151.134;2023-03-01T10:17:36;23.20;99.90
16392;DHT22;8305;-33.882;151.134;2023-03-01T10:20:20;23.10;99.90
16392;DHT22;8305;-33.882;151.134;2023-03-01T10:22:52;23.10;99.90
16392;DHT22;8305;-33.882;151.134;2023-03-01T10:25:39;23.00;99.90
16392;DHT22;8305;-33.882;151.134;2023-03-01T10:28:16;23.00;99.90
16392;DHT22;8305;-33.882;151.134;2023-03-01T10:30:48;22.90;99.90
16392;DHT22;8305;-33.882;151.134;2023-03-01T10:33:22;22.90;99.90
16392;DHT22;8305;-33.882;151.134;2023-03-01T10:35:54;22.80;99.90
16392;DHT22;8305;-33.882;151.134;2023-03-01T10:38:25;22.80;99.90
16392;DHT22;8305;-33.882;151.134;2023-03-01T10:41:04;22.80;99.90
16392;DHT22;8305;-33.882;151.134;2023-03-01T10:43:45;22.70;99.90
16392;DHT22;8305;-33.882;151.134;2023-03-01T10:46:27;22.70;99.90
16392;DHT22;8305;-33.882;151.134;2023-03-01T10:49:14;22.70;99.90
16392;DHT22;8305;-33.882;151.134;2023-03-01T10:51:46;22.70;99.90
16392;DHT22;8305;-33.882;151.134;2023-03-01T10:54:20;22.70;99.90
16392;DHT22;8305;-33.882;151.134;2023-03-01T10:56:54;22.70;99.90
16392;DHT22;8305;-33.882;151.134;2023-03-01T10:59:30;22.70;99.90
16392;DHT22;8305;-33.882;151.134;2023-03-01T11:02:28;22.70;99.90
16392;DHT22;8305;-33.882;151.134;2023-03-01T11:05:03;22.70;99.90
16392;DHT22;8305;-33.882;151.134;2023-03-01T11:07:49;22.70;99.90
16392;DHT22;8305;-33.882;151.134;2023-03-01T11:10:22;22.70;99.90
16392;DHT22;8305;-33.882;151.134;2023-03-01T11:13:07;22.70;99.90
16392;DHT22;8305;-33.882;151.134;2023-03-01T11:15:38;22.60;99.90
16392;DHT22;8305;-33.882;151.134;2023-03-01T11:18:21;22.60;99.90
16392;DHT22;8305;-33.882;151.134;2023-03-01T11:20:53;22.60;99.90
16392;DHT22;8305;-33.882;151.134;2023-03-01T11:23:26;22.60;99.90
16392;DHT22;8305;-33.882;151.134;2023-03-01T11:26:02;22.60;99.90
16392;DHT22;8305;-33.882;151.134;2023-03-01T11:28:39;22.60;99.90
16392;DHT22;8305;-33.882;151.134;2023-03-01T11:31:12;22.60;99.90
16392;DHT22;8305;-33.882;151.134;2023-03-01T11:33:47;22.60;99.90
16392;DHT22;8305;-33.882;151.134;2023-03-01T11:36:26;22.60;99.90
16392;DHT22;8305;-33.882;151.134;2023-03-01T11:39:05;22.60;99.90
16392;DHT22;8305;-33.882;151.134;2023-03-01T11:41:42;22.60;99.90
16392;DHT22;8305;-33.882;151.134;2023-03-01T11:44:18;22.60;99.90
16392;DHT22;8305;-33.882;151.134;2023-03-01T11:47:11;22.60;99.90
16392;DHT22;8305;-33.882;151.134;2023-03-01T11:50:09;22.60;99.90
16392;DHT22;8305;-33.882;151.134;2023-03-01T11:52:51;22.60;99.90
16392;DHT22;8305;-33.882;151.134;2023-03-01T11:55:33;22.60;99.90
16392;DHT22;8305;-33.882;151.134;2023-03-01T11:58:23;22.60;99.90
16392;DHT22;8305;-33.882;151.134;2023-03-01T12:01:19;22.60;99.90
16392;DHT22;8305;-33.882;151.134;2023-03-01T12:04:18;22.60;99.90
16392;DHT22;8305;-33.882;151.134;2023-03-01T12:06:58;22.60;99.90
16392;DHT22;8305;-33.882;151.134;2023-03-01T12:09:43;22.60;99.90
16392;DHT22;8305;-33.882;151.134;2023-03-01T12:12:34;22.60;99.90
16392;DHT22;8305;-33.882;151.134;2023-03-01T12:21:38;22.50;99.90
16392;DHT22;8305;-33.882;151.134;2023-03-01T12:24:34;22.60;99.90
16392;DHT22;8305;-33.882;151.134;2023-03-01T12:27:25;22.60;99.90
16392;DHT22;8305;-33.882;151.134;2023-03-01T12:30:13;22.60;99.90
16392;DHT22;8305;-33.882;151.134;2023-03-01T12:32:56;22.60;99.90
16392;DHT22;8305;-33.882;151.134;2023-03-01T12:35:49;22.60;99.90
16392;DHT22;8305;-33.882;151.134;2023-03-01T12:38:33;22.60;99.90
16392;DHT22;8305;-33.882;151.134;2023-03-01T12:41:30;22.60;99.90
16392;DHT22;8305;-33.882;151.134;2023-03-01T12:44:20;22.60;99.90
16392;DHT22;8305;-33.882;151.134;2023-03-01T12:47:07;22.50;99.90
16392;DHT22;8305;-33.882;151.134;2023-03-01T12:49:44;22.50;99.90
16392;DHT22;8305;-33.882;151.134;2023-03-01T12:52:20;22.50;99.90
16392;DHT22;8305;-33.882;151.134;2023-03-01T12:54:56;22.50;99.90
16392;DHT22;8305;-33.882;151.134;2023-03-01T12:57:30;22.50;99.90
16392;DHT22;8305;-33.882;151.134;2023-03-01T13:00:17;22.50;99.90
16392;DHT22;8305;-33.882;151.134;2023-03-01T13:02:55;22.40;99.90
16392;DHT22;8305;-33.882;151.134;2023-03-01T13:05:38;22.40;99.90
16392;DHT22;8305;-33.882;151.134;2023-03-01T13:08:16;22.40;99.90
16392;DHT22;8305;-33.882;151.134;2023-03-01T13:10:55;22.40;99.90
16392;DHT22;8305;-33.882;151.134;2023-03-01T13:13:28;22.40;99.90
16392;DHT22;8305;-33.882;151.134;2023-03-01T13:19:13;22.30;99.90
16392;DHT22;8305;-33.882;151.134;2023-03-01T13:21:46;22.30;99.90
16392;DHT22;8305;-33.882;151.134;2023-03-01T13:24:29;22.30;99.90
16392;DHT22;8305;-33.882;151.134;2023-03-01T13:27:22;22.30;99.90
16392;DHT22;8305;-33.882;151.134;2023-03-01T13:30:00;22.30;99.90
16392;DHT22;8305;-33.882;151.134;2023-03-01T13:32:34;22.30;99.90
16392;DHT22;8305;-33.882;151.134;2023-03-01T13:38:38;22.30;99.90
16392;DHT22;8305;-33.882;151.134;2023-03-01T13:41:15;22.30;99.90
16392;DHT22;8305;-33.882;151.134;2023-03-01T13:43:49;22.30;99.90
16392;DHT22;8305;-33.882;151.134;2023-03-01T13:46:23;22.30;99.90
16392;DHT22;8305;-33.882;151.134;2023-03-01T13:48:56;22.30;99.90
16392;DHT22;8305;-33.882;151.134;2023-03-01T13:51:28;22.30;99.90
16392;DHT22;8305;-33.882;151.134;2023-03-01T13:54:00;22.30;99.90
16392;DHT22;8305;-33.882;151.134;2023-03-01T13:56:37;22.30;99.90
16392;DHT22;8305;-33.882;151.134;2023-03-01T13:59:14;22.30;99.90
16392;DHT22;8305;-33.882;151.134;2023-03-01T14:01:53;22.30;99.90
16392;DHT22;8305;-33.882;151.134;2023-03-01T14:04:26;22.20;99.90
16392;DHT22;8305;-33.882;151.134;2023-03-01T14:07:13;22.30;99.90
16392;DHT22;8305;-33.882;151.134;2023-03-01T14:09:50;22.30;99.90
16392;DHT22;8305;-33.882;151.134;2023-03-01T14:12:33;22.20;99.90
16392;DHT22;8305;-33.882;151.134;2023-03-01T14:15:16;22.30;99.90
16392;DHT22;8305;-33.882;151.134;2023-03-01T14:17:58;22.20;99.90
16392;DHT22;8305;-33.882;151.134;2023-03-01T14:20:32;22.20;99.90
16392;DHT22;8305;-33.882;151.134;2023-03-01T14:23:10;22.20;99.90
16392;DHT22;8305;-33.882;151.134;2023-03-01T14:25:50;22.20;99.90
16392;DHT22;8305;-33.882;151.134;2023-03-01T14:28:24;22.10;99.90
16392;DHT22;8305;-33.882;151.134;2023-03-01T14:30:58;22.10;99.90
16392;DHT22;8305;-33.882;151.134;2023-03-01T14:33:30;22.10;99.90
16392;DHT22;8305;-33.882;151.134;2023-03-01T14:36:03;22.10;99.90
16392;DHT22;8305;-33.882;151.134;2023-03-01T14:38:36;22.00;99.90
16392;DHT22;8305;-33.882;151.134;2023-03-01T14:41:09;22.00;99.90
16392;DHT22;8305;-33.882;151.134;2023-03-01T14:43:43;22.00;99.90
16392;DHT22;8305;-33.882;151.134;2023-03-01T14:46:25;22.00;99.90
16392;DHT22;8305;-33.882;151.134;2023-03-01T14:49:01;22.00;99.90
16392;DHT22;8305;-33.882;151.134;2023-03-01T14:51:36;22.00;99.90
16392;DHT22;8305;-33.882;151.134;2023-03-01T14:54:20;22.00;99.90
16392;DHT22;8305;-33.882;151.134;2023-03-01T14:56:51;22.00;99.90
16392;DHT22;8305;-33.882;151.134;2023-03-01T14:59:24;22.00;99.90
16392;DHT22;8305;-33.882;151.134;2023-03-01T15:01:59;22.00;99.90
16392;DHT22;8305;-33.882;151.134;2023-03-01T15:04:30;22.00;99.90
16392;DHT22;8305;-33.882;151.134;2023-03-01T15:07:01;21.90;99.90
16392;DHT22;8305;-33.882;151.134;2023-03-01T15:09:34;22.00;99.90
16392;DHT22;8305;-33.882;151.134;2023-03-01T15:12:34;22.00;99.90
16392;DHT22;8305;-33.882;151.134;2023-03-01T15:15:21;22.00;99.90
16392;DHT22;8305;-33.882;151.134;2023-03-01T15:17:55;21.90;99.90
16392;DHT22;8305;-33.882;151.134;2023-03-01T15:20:27;21.80;99.90
16392;DHT22;8305;-33.882;151.134;2023-03-01T15:23:00;21.90;99.90
16392;DHT22;8305;-33.882;151.134;2023-03-01T15:25:32;21.80;99.90
16392;DHT22;8305;-33.882;151.134;2023-03-01T15:28:04;21.80;99.90
16392;DHT22;8305;-33.882;151.134;2023-03-01T15:30:36;21.80;99.90
16392;DHT22;8305;-33.882;151.134;2023-03-01T15:33:29;21.70;99.90
16392;DHT22;8305;-33.882;151.134;2023-03-01T15:36:01;21.70;99.90
16392;DHT22;8305;-33.882;151.134;2023-03-01T15:38:34;21.60;99.90
16392;DHT22;8305;-33.882;151.134;2023-03-01T15:41:21;21.60;99.90
16392;DHT22;8305;-33.882;151.134;2023-03-01T15:43:53;21.60;99.90
16392;DHT22;8305;-33.882;151.134;2023-03-01T15:46:27;21.50;99.90
16392;DHT22;8305;-33.882;151.134;2023-03-01T15:49:03;21.50;99.90
16392;DHT22;8305;-33.882;151.134;2023-03-01T15:51:35;21.40;99.90
16392;DHT22;8305;-33.882;151.134;2023-03-01T15:54:10;21.40;99.90
16392;DHT22;8305;-33.882;151.134;2023-03-01T15:56:43;21.30;99.90
16392;DHT22;8305;-33.882;151.134;2023-03-01T15:59:14;21.30;99.90
16392;DHT22;8305;-33.882;151.134;2023-03-01T16:01:45;21.20;99.90
16392;DHT22;8305;-33.882;151.134;2023-03-01T16:04:19;21.20;99.90